Time;durP1;ratioP1;P1;durP2;ratioP2;P2;SDS_P1;SDS_P2;PMS_P1;PMS_P2;Temp;Humidity;BMP_temperature;BMP_pressure;BME280_temperature;BME280_humidity;BME280_pressure;Samples;Min_cycle;Max_cycle;Signal;HPM_P1;HPM_P2
2021/06/19 07:07:45;;;;;;;0.78;0.78;;;;;;;27.61;40.41;98357.25;129077;1097;114676;-84
2021/06/19 07:19:40;;;;;;;0.63;0.63;;;;;;;28.00;40.91;98358.50;129057;1096;115629;-83
2021/06/19 07:23:15;;;;;;;;;;;;;;;;;;;;;
2021/06/19 07:32:46;;;;;;;0.60;0.60;;;;;;;28.34;40.78;98363.73;129393;1096;115181;-85
2021/06/19 07:51:16;;;;;;;0.70;0.70;;;;;;;28.91;39.46;98345.80;129031;1095;115437;-84
2021/06/19 07:54:45;;;;;;;0.58;0.58;;;;;;;29.03;39.38;98349.91;128975;1096;115768;-84
2021/06/19 09:09:21;;;;;;;0.75;0.75;;;;;;;31.13;36.23;98337.53;129032;1095;115625;-84
2021/06/19 09:19:20;;;;;;;;;;;;;;;;;;;;;
2021/06/19 09:22:48;;;;;;;0.70;0.70;;;;;;;31.52;34.55;98330.64;128804;1095;115662;-84
2021/06/19 09:28:59;;;;;;;0.68;0.68;;;;;;;31.68;34.61;98331.69;129084;1096;115448;-83
2021/06/19 09:32:38;;;;;;;0.60;0.60;;;;;;;31.78;34.44;98328.49;128839;1095;114356;-82
2021/06/19 09:36:20;;;;;;;0.70;0.70;;;;;;;31.81;34.06;98328.83;128912;1097;115231;-83
2021/06/19 09:43:29;;;;;;;0.70;0.70;;;;;;;31.93;33.87;98328.78;127797;1096;115395;-85
2021/06/19 09:46:57;;;;;;;;;;;;;;;;;;;;;
2021/06/19 09:57:40;;;;;;;0.70;0.70;;;;;;;32.57;33.32;98322.00;128981;1095;115111;-84
2021/06/19 10:04:56;;;;;;;0.70;0.70;;;;;;;32.77;33.06;98322.36;128926;1096;115621;-85
2021/06/19 10:08:23;;;;;;;0.70;0.70;;;;;;;32.86;30.93;98308.46;129564;1096;113914;-85
2021/06/19 10:18:44;;;;;;;0.80;0.80;;;;;;;33.34;31.72;98310.87;128900;1094;115641;-84
2021/06/19 10:29:10;;;;;;;0.80;0.80;;;;;;;33.88;30.77;98312.87;128993;1096;115140;-84
2021/06/19 10:32:43;;;;;;;;;;;;;;;;;;;;;
2021/06/19 10:36:30;;;;;;;0.73;0.73;;;;;;;34.36;30.51;98307.47;128957;1096;115785;-83
2021/06/19 10:40:15;;;;;;;0.90;0.90;;;;;;;34.61;30.11;98320.27;129007;1096;115589;-83
2021/06/19 10:43:52;;;;;;;0.65;0.65;;;;;;;34.82;29.73;98309.27;129047;1096;115636;-84
2021/06/19 10:47:34;;;;;;;0.85;0.85;;;;;;;35.01;29.52;98310.73;129001;1096;114975;-83
2021/06/19 10:51:03;;;;;;;0.70;0.70;;;;;;;35.18;28.97;98301.94;128660;1096;115583;-83
2021/06/19 10:54:50;;;;;;;0.80;0.80;;;;;;;35.27;28.00;98305.42;128823;1096;116617;-84
2021/06/19 10:57:58;;;;;;;;;;;;;;;;;;;;;
2021/06/19 11:01:46;;;;;;;0.80;0.80;;;;;;;35.53;27.98;98293.71;129029;1095;115289;-84
2021/06/19 11:05:29;;;;;;;0.90;0.90;;;;;;;35.72;27.98;98283.11;128787;1096;115208;-84
2021/06/19 11:08:53;;;;;;;1.03;1.03;;;;;;;35.88;27.01;98277.02;129879;1096;23395;-84
2021/06/19 11:19:44;;;;;;;0.70;0.70;;;;;;;36.43;27.12;98281.23;128743;1096;115648;-84
2021/06/19 11:23:07;;;;;;;0.70;0.70;;;;;;;36.68;26.39;98272.20;128685;1095;115811;-84
2021/06/19 11:26:37;;;;;;;1.00;1.00;;;;;;;36.84;25.93;98271.64;129834;1095;22978;-84
2021/06/19 11:30:20;;;;;;;0.80;0.80;;;;;;;37.01;25.62;98259.88;128472;1095;115378;-84
2021/06/19 11:44:34;;;;;;;;;;;;;;;;;;;;;
2021/06/19 11:48:10;;;;;;;0.90;0.90;;;;;;;37.94;24.76;98252.20;127788;1099;115118;-84
2021/06/19 11:51:44;;;;;;;0.80;0.80;;;;;;;38.13;24.68;98246.98;128801;1095;115490;-83
2021/06/19 11:55:11;;;;;;;0.90;0.90;;;;;;;38.27;23.95;98246.03;128802;1097;115672;-84
2021/06/19 11:58:38;;;;;;;0.83;0.83;;;;;;;38.46;23.83;98240.05;128809;1096;115217;-85
2021/06/19 12:09:12;;;;;;;0.80;0.80;;;;;;;38.32;23.49;98230.49;128609;1097;115241;-84
2021/06/19 12:13:02;;;;;;;0.80;0.80;;;;;;;38.57;22.45;98233.72;128579;1097;115011;-84
2021/06/19 12:16:12;;;;;;;1.00;1.00;;;;;;;38.66;21.62;98227.88;128653;1097;115328;-83
2021/06/19 12:30:14;;;;;;;0.80;0.80;;;;;;;38.51;22.62;98223.19;128661;1096;115097;-83
2021/06/19 12:33:42;;;;;;;0.90;0.90;;;;;;;38.65;22.68;98229.92;128969;1096;115598;-84
2021/06/19 12:37:12;;;;;;;0.88;0.88;;;;;;;38.64;22.61;98224.81;128948;1095;115300;-84
2021/06/19 12:40:30;;;;;;;;;;;;;;;;;;;;;
2021/06/19 14:09:47;;;;;;;1.00;1.00;;;;;;;43.33;16.79;98179.22;129063;1096;115239;-82
2021/06/19 14:13:14;;;;;;;0.85;0.85;;;;;;;43.53;16.68;98170.16;129019;1096;115554;-82
2021/06/19 15:39:12;;;;;;;1.40;1.40;;;;;;;51.29;8.57;98088.53;125503;1095;114969;-90
2021/06/19 15:41:39;;;;;;;1.50;1.50;;;;;;;51.60;8.86;98096.65;128683;1097;115357;-89
2021/06/19 15:44:05;;;;;;;1.40;1.40;;;;;;;51.84;8.53;98097.73;128734;1096;115033;-87
2021/06/19 15:46:33;;;;;;;1.40;1.40;;;;;;;51.96;8.65;98090.06;129537;1096;22597;-89
2021/06/19 15:49:02;;;;;;;1.40;1.40;;;;;;;51.84;8.21;98080.51;128734;1097;115401;-88
2021/06/19 15:51:36;;;;;;;1.50;1.50;;;;;;;51.72;8.19;98086.09;128677;1096;115368;-87
2021/06/19 15:54:06;;;;;;;1.50;1.50;;;;;;;51.83;7.93;98084.75;128691;1097;115499;-90
2021/06/19 15:56:34;;;;;;;1.40;1.40;;;;;;;51.90;8.56;98089.59;128710;1097;115379;-90
2021/06/19 15:59:01;;;;;;;1.40;1.40;;;;;;;51.79;7.94;98091.69;128668;1096;116305;-89
2021/06/19 16:01:27;;;;;;;1.50;1.50;;;;;;;51.54;8.50;98076.83;129519;1097;22554;-89
2021/06/19 16:03:55;;;;;;;1.50;1.50;;;;;;;51.47;8.15;98084.21;128625;1096;115176;-89
2021/06/19 16:06:23;;;;;;;1.50;1.50;;;;;;;51.37;8.44;98088.41;128633;1097;115585;-89
2021/06/19 16:08:50;;;;;;;1.40;1.40;;;;;;;51.22;8.71;98092.28;128681;1097;115274;-89
2021/06/19 16:11:17;;;;;;;1.30;1.30;;;;;;;50.99;8.58;98092.63;128657;1096;115533;-89
2021/06/19 16:13:44;;;;;;;1.30;1.30;;;;;;;50.67;8.88;98099.39;129516;1095;22602;-89
2021/06/19 16:16:13;;;;;;;1.40;1.40;;;;;;;50.25;9.71;98089.56;128722;1095;115311;-89
2021/06/19 16:18:39;;;;;;;1.30;1.30;;;;;;;49.79;10.19;98092.88;128686;1096;115290;-89
2021/06/19 16:21:06;;;;;;;1.40;1.40;;;;;;;49.26;10.22;98088.38;128703;1096;115797;-89
2021/06/19 16:23:33;;;;;;;1.30;1.30;;;;;;;48.76;10.70;98091.14;128679;1097;116720;-90
2021/06/19 16:26:01;;;;;;;1.20;1.20;;;;;;;48.26;11.22;98079.55;128686;1097;116004;-89
2021/06/19 16:28:54;;;;;;;1.10;1.10;;;;;;;47.62;11.88;98087.27;129513;1097;22544;-87
2021/06/19 16:31:25;;;;;;;1.10;1.10;;;;;;;46.82;12.43;98090.41;129625;1095;22563;-89
2021/06/19 16:33:52;;;;;;;1.20;1.20;;;;;;;46.11;13.14;98089.89;128702;1096;115000;-89
2021/06/19 16:36:18;;;;;;;1.20;1.20;;;;;;;45.39;14.54;98087.63;128683;1096;115885;-89
2021/06/19 16:38:44;;;;;;;1.10;1.10;;;;;;;44.75;14.74;98094.58;128649;1096;115581;-89
2021/06/19 16:41:12;;;;;;;1.00;1.00;;;;;;;44.06;15.05;98092.92;128727;1096;115655;-89
2021/06/19 16:43:39;;;;;;;0.88;0.88;;;;;;;43.43;15.41;98100.19;129554;1097;22592;-89
2021/06/19 16:46:14;;;;;;;0.90;0.90;;;;;;;42.79;15.95;98093.19;128721;1096;115253;-89
2021/06/19 16:48:42;;;;;;;0.90;0.90;;;;;;;42.20;16.49;98092.12;128717;1096;115443;-89
2021/06/19 16:51:08;;;;;;;0.90;0.90;;;;;;;41.74;17.25;98099.56;128658;1095;115082;-89
2021/06/19 16:53:36;;;;;;;0.90;0.90;;;;;;;41.28;17.95;98098.41;128657;1096;115388;-89
2021/06/19 16:56:05;;;;;;;0.90;0.90;;;;;;;40.84;18.71;98097.41;128800;1095;115954;-89
2021/06/19 16:58:32;;;;;;;0.90;0.90;;;;;;;40.40;18.91;98098.38;129613;1095;22571;-89
2021/06/19 17:01:00;;;;;;;0.85;0.85;;;;;;;40.05;19.48;98098.99;128789;1096;114867;-89
2021/06/19 17:03:53;;;;;;;0.80;0.80;;;;;;;39.70;19.71;98108.83;128685;1096;115624;-89
2021/06/19 17:06:19;;;;;;;0.73;0.73;;;;;;;39.30;20.26;98124.17;128740;1095;115164;-89
2021/06/19 17:08:46;;;;;;;0.90;0.90;;;;;;;38.98;20.43;98119.50;128725;1097;115383;-91
2021/06/19 17:11:12;;;;;;;1.10;1.10;;;;;;;38.65;20.97;98120.17;128755;1097;115391;-89
2021/06/19 17:13:40;;;;;;;0.75;0.75;;;;;;;38.38;21.12;98130.05;129579;1097;22639;-88
2021/06/19 19:19:48;;;;;;;0.40;0.40;;;;;;;29.26;32.48;98186.09;129032;1096;115029;-81
